Time;durP1;ratioP1;P1;durP2;ratioP2;P2;SDS_P1;SDS_P2;PMS_P1;PMS_P2;Temp;Humidity;BMP_temperature;BMP_pressure;BME280_temperature;BME280_humidity;BME280_pressure;Samples;Min_cycle;Max_cycle;Signal;HPM_P1;HPM_P2
2022/12/01 00:02:04;;;;;;;50.70;27.40;;;;;;;1.31;69.41;101447.31;4849077;28;101229;-86
2022/12/01 00:04:29;;;;;;;43.13;27.40;;;;;;;1.44;69.80;101455.31;4837417;28;97257;-88
2022/12/01 00:06:55;;;;;;;48.33;27.97;;;;;;;1.48;69.79;101459.72;4845004;28;96882;-89
2022/12/01 00:12:04;;;;;;;48.33;27.80;;;;;;;1.45;69.55;101451.88;4861391;28;101810;-88
2022/12/01 00:14:30;;;;;;;51.70;29.30;;;;;;;1.54;69.49;101459.84;4846951;28;96900;-87
2022/12/01 00:16:55;;;;;;;48.63;29.20;;;;;;;1.54;69.32;101472.78;4828534;28;97001;-88
2022/12/01 00:19:25;;;;;;;45.17;27.23;;;;;;;1.25;69.41;101423.00;4857035;28;98033;-87
2022/12/01 00:21:51;;;;;;;54.33;31.00;;;;;;;1.55;69.67;101474.53;4844688;28;101332;-89
2022/12/01 00:24:16;;;;;;;50.67;29.90;;;;;;;1.49;69.59;101466.66;4855452;28;97350;-86
2022/12/01 00:26:42;;;;;;;52.53;30.10;;;;;;;1.57;69.48;101463.38;4853469;28;97325;-88
2022/12/01 00:29:07;;;;;;;49.97;28.97;;;;;;;1.50;69.80;101460.63;4830038;28;101867;-87
2022/12/01 00:31:33;;;;;;;47.20;28.40;;;;;;;1.49;69.76;101467.53;4841072;28;101612;-85
2022/12/01 00:33:58;;;;;;;48.37;28.77;;;;;;;1.48;69.67;101462.28;4831634;28;96792;-90
2022/12/01 00:36:23;;;;;;;44.90;28.27;;;;;;;1.46;69.83;101462.28;4848478;28;97116;-89
2022/12/01 00:38:53;;;;;;;42.13;27.50;;;;;;;1.40;69.44;101453.50;4860281;28;100027;-88
2022/12/01 00:41:20;;;;;;;51.23;28.77;;;;;;;1.49;69.49;101456.31;4856901;28;97541;-88
2022/12/01 00:43:45;;;;;;;46.30;26.90;;;;;;;1.36;69.65;101455.16;4840248;28;96897;-87
2022/12/01 00:46:11;;;;;;;46.87;27.97;;;;;;;1.42;69.53;101459.56;4829992;28;96777;-86
2022/12/01 00:48:36;;;;;;;45.43;28.57;;;;;;;1.25;69.92;101441.09;4869718;28;97530;-88
2022/12/01 00:51:02;;;;;;;47.67;29.50;;;;;;;1.49;69.54;101462.34;4859402;28;101392;-88
2022/12/01 00:53:27;;;;;;;46.50;27.83;;;;;;;1.38;69.24;101465.53;4831839;28;96813;-87
2022/12/01 00:55:53;;;;;;;48.57;27.73;;;;;;;1.24;70.29;101457.47;4840299;28;96863;-87
2022/12/01 00:58:19;;;;;;;43.93;26.63;;;;;;;1.33;70.33;101460.25;4845425;28;100778;-88
2022/12/01 01:00:44;;;;;;;44.17;26.53;;;;;;;1.34;69.97;101457.72;4873697;28;98247;-89
2022/12/01 01:03:10;;;;;;;52.77;28.97;;;;;;;1.33;69.87;101447.31;4850328;28;97068;-85
2022/12/01 01:05:40;;;;;;;47.90;27.70;;;;;;;1.34;69.90;101454.25;4844446;28;97004;-86
2022/12/01 01:08:11;;;;;;;44.47;28.13;;;;;;;1.12;70.04;101419.28;4844471;28;101653;-87
2022/12/01 01:10:38;;;;;;;44.53;26.27;;;;;;;1.26;70.07;101433.38;4855358;28;101163;-87
2022/12/01 01:13:03;;;;;;;46.87;27.87;;;;;;;1.37;69.90;101454.31;4866697;28;96880;-88
2022/12/01 01:15:29;;;;;;;46.70;28.07;;;;;;;1.34;69.77;101449.97;4861034;28;97247;-86
2022/12/01 01:17:54;;;;;;;39.97;25.60;;;;;;;1.32;69.82;101445.59;4839795;28;101498;-87
2022/12/01 01:20:20;;;;;;;42.43;26.57;;;;;;;1.28;69.86;101444.66;4856565;28;101164;-88
2022/12/01 01:22:45;;;;;;;42.07;26.80;;;;;;;1.22;69.68;101438.44;4831804;28;97454;-87
2022/12/01 01:25:11;;;;;;;44.03;27.87;;;;;;;1.32;69.36;101441.28;4842454;28;97262;-85
2022/12/01 01:27:36;;;;;;;44.57;28.60;;;;;;;1.25;69.58;101425.56;4839662;28;101081;-89
2022/12/01 01:30:02;;;;;;;44.80;26.57;;;;;;;1.17;70.19;101447.84;4851877;28;97840;-88
2022/12/01 01:32:28;;;;;;;43.33;26.47;;;;;;;1.18;70.55;101436.66;4840853;28;99587;-87
2022/12/01 01:34:53;;;;;;;41.43;25.97;;;;;;;1.17;69.59;101421.97;4832612;28;96854;-89
2022/12/01 01:37:19;;;;;;;42.53;25.40;;;;;;;1.24;69.97;101435.06;4852071;28;100933;-88
2022/12/01 01:39:44;;;;;;;36.70;24.90;;;;;;;1.27;70.01;101435.13;4848245;28;97231;-87
2022/12/01 01:42:12;;;;;;;39.90;25.00;;;;;;;1.25;70.05;101433.34;4853258;28;97022;-87
2022/12/01 01:44:47;;;;;;;35.80;23.80;;;;;;;1.23;69.46;101433.31;4840020;28;96870;-88
2022/12/01 01:47:13;;;;;;;38.60;25.77;;;;;;;1.17;69.17;101433.19;4855562;28;101304;-86
2022/12/01 01:49:40;;;;;;;36.40;23.80;;;;;;;1.21;69.82;101431.53;4862855;28;101610;-88
2022/12/01 01:52:06;;;;;;;35.30;23.37;;;;;;;1.22;69.46;101433.28;4840193;28;97356;-88
2022/12/01 01:54:43;;;;;;;38.10;24.00;;;;;;;1.22;69.19;101418.66;4855615;28;97498;-87
2022/12/01 01:57:11;;;;;;;36.10;23.33;;;;;;;0.91;69.41;101365.38;4849870;28;101975;-88
2022/12/01 01:59:43;;;;;;;41.40;25.40;;;;;;;1.52;68.37;101426.16;4860163;28;100176;-88
2022/12/01 02:02:09;;;;;;;39.17;25.45;;;;;;;1.29;69.21;101427.41;4842892;28;97690;-89
2022/12/01 02:04:37;;;;;;;40.07;26.17;;;;;;;1.25;69.31;101403.19;4842090;28;96898;-88
2022/12/01 02:07:04;;;;;;;41.17;26.33;;;;;;;0.98;69.71;101385.34;4866663;28;97541;-87
2022/12/01 02:09:29;;;;;;;34.87;23.23;;;;;;;1.26;69.46;101419.59;4832187;29;98565;-88
2022/12/01 02:12:20;;;;;;;36.57;23.10;;;;;;;1.25;69.64;101412.66;4838648;28;98224;-89
2022/12/01 02:15:11;;;;;;;37.27;23.30;;;;;;;1.30;69.32;101414.50;4830589;28;97496;-85
2022/12/01 02:17:53;;;;;;;35.60;23.00;;;;;;;1.35;69.51;101410.28;4849767;28;100315;-86
2022/12/01 02:20:22;;;;;;;41.43;25.10;;;;;;;1.53;68.89;101411.50;4854234;28;98031;-88
2022/12/01 02:23:06;;;;;;;38.30;23.70;;;;;;;1.39;69.49;101418.13;4870543;29;96813;-86
2022/12/01 02:25:49;;;;;;;44.20;26.20;;;;;;;1.43;68.99;101410.47;4836553;29;97179;-87
2022/12/01 02:28:29;;;;;;;40.00;24.17;;;;;;;1.31;69.48;101416.25;4845108;28;101684;-85
2022/12/01 02:31:16;;;;;;;39.53;23.73;;;;;;;1.32;69.55;101410.22;4852285;28;101850;-89
2022/12/01 02:33:58;;;;;;;37.90;24.87;;;;;;;1.25;69.73;101399.72;4846988;28;96717;-88
2022/12/01 02:36:32;;;;;;;40.80;24.85;;;;;;;1.35;69.48;101415.47;4841192;28;98461;-88
2022/12/01 02:39:05;;;;;;;43.43;25.27;;;;;;;1.42;69.34;101419.03;4858255;28;101232;-86
2022/12/01 02:41:45;;;;;;;38.17;25.20;;;;;;;1.36;69.41;101411.16;4841626;28;100507;-88
2022/12/01 02:44:16;;;;;;;37.93;24.90;;;;;;;1.27;69.38;101383.38;4851302;28;100330;-87
2022/12/01 02:47:09;;;;;;;33.70;22.90;;;;;;;1.48;69.03;101398.47;4841287;28;97282;-88
2022/12/01 02:49:45;;;;;;;36.07;22.93;;;;;;;1.31;69.32;101374.88;4828376;29;101351;-88
2022/12/01 02:52:12;;;;;;;40.60;24.20;;;;;;;1.43;69.73;101412.19;4828225;28;101183;-89
2022/12/01 02:54:38;;;;;;;41.83;24.93;;;;;;;1.46;69.30;101394.13;4856907;28;97108;-89
2022/12/01 02:57:04;;;;;;;38.17;24.07;;;;;;;1.42;69.50;101400.94;4857320;28;97076;-89
2022/12/01 02:59:29;;;;;;;42.87;25.70;;;;;;;1.27;69.31;101374.75;4815635;29;101297;-89
2022/12/01 03:02:17;;;;;;;35.57;23.40;;;;;;;1.44;69.27;101395.81;4835554;28;100416;-89
2022/12/01 03:05:01;;;;;;;38.73;24.93;;;;;;;1.40;69.37;101388.81;4843008;28;97210;-87
2022/12/01 03:07:44;;;;;;;39.83;24.67;;;;;;;1.38;69.36;101391.38;4859868;28;97041;-88
2022/12/01 03:10:23;;;;;;;38.40;23.50;;;;;;;1.30;69.56;101380.00;4863706;28;97921;-89
2022/12/01 03:13:26;;;;;;;39.13;22.90;;;;;;;1.44;68.95;101382.88;4846688;28;98155;-87
2022/12/01 03:15:54;;;;;;;35.80;24.03;;;;;;;1.45;69.19;101387.19;4866605;28;96951;-86
2022/12/01 03:18:47;;;;;;;41.00;23.33;;;;;;;1.44;68.55;101381.16;4875291;28;97176;-88
2022/12/01 03:21:32;;;;;;;39.13;24.27;;;;;;;1.43;69.53;101394.06;4846385;28;101214;-88
2022/12/01 03:24:06;;;;;;;37.30;23.70;;;;;;;1.45;69.38;101389.78;4850014;28;101891;-88
2022/12/01 03:26:32;;;;;;;35.77;23.60;;;;;;;1.43;69.21;101376.81;4828986;28;97245;-88
2022/12/01 03:29:02;;;;;;;35.37;22.73;;;;;;;1.43;68.87;101374.22;4855522;28;96824;-87
2022/12/01 03:31:32;;;;;;;41.30;26.30;;;;;;;1.36;69.51;101369.75;4859393;28;101289;-87
2022/12/01 03:34:02;;;;;;;42.53;26.87;;;;;;;1.37;68.89;101353.41;4848754;28;101343;-87
2022/12/01 03:36:44;;;;;;;38.87;24.20;;;;;;;1.52;69.28;101386.50;4840240;28;97096;-88
2022/12/01 03:39:20;;;;;;;41.38;25.63;;;;;;;1.46;69.33;101382.06;4842181;28;98269;-88
2022/12/01 03:42:02;;;;;;;37.73;24.30;;;;;;;1.48;68.85;101376.91;4863097;28;100820;-87
2022/12/01 03:44:35;;;;;;;38.63;24.05;;;;;;;1.52;68.98;101379.59;4862461;28;97510;-90
2022/12/01 03:47:07;;;;;;;39.20;24.57;;;;;;;1.58;68.57;101379.72;4841257;28;98078;-90
2022/12/01 03:49:33;;;;;;;39.92;23.95;;;;;;;1.52;68.90;101371.81;4854835;28;97226;-87
2022/12/01 03:52:08;;;;;;;39.97;24.87;;;;;;;1.56;69.05;101378.78;4852626;28;100214;-87
2022/12/01 03:54:54;;;;;;;38.87;25.67;;;;;;;1.61;68.61;101389.25;4856124;28;97389;-88
2022/12/01 03:57:32;;;;;;;40.13;23.93;;;;;;;1.46;68.69;101358.78;4850462;28;97251;-88
2022/12/01 03:59:57;;;;;;;37.23;24.53;;;;;;;1.63;68.95;101382.41;4855572;28;97303;-87
2022/12/01 04:02:26;;;;;;;38.37;25.10;;;;;;;1.54;68.63;101377.00;4860035;28;101558;-87
2022/12/01 04:04:52;;;;;;;37.50;26.00;;;;;;;1.53;69.15;101377.88;4846373;28;101592;-87
2022/12/01 04:07:19;;;;;;;38.20;24.57;;;;;;;1.54;69.02;101388.25;4848358;28;97088;-89
2022/12/01 04:09:44;;;;;;;38.17;25.20;;;;;;;1.52;68.74;101387.34;4845243;28;97394;-88
2022/12/01 04:12:31;;;;;;;41.90;24.67;;;;;;;1.49;68.93;101383.84;4837639;28;101751;-88
2022/12/01 04:15:09;;;;;;;40.60;26.10;;;;;;;1.57;69.23;101385.75;4847268;28;101930;-88
2022/12/01 04:17:36;;;;;;;44.03;26.30;;;;;;;1.55;69.04;101377.06;4849200;28;97173;-86
2022/12/01 04:20:03;;;;;;;42.93;25.90;;;;;;;1.31;69.15;101341.22;4850815;28;97383;-88
2022/12/01 04:22:28;;;;;;;40.27;26.67;;;;;;;1.62;69.33;101388.41;4850797;28;101641;-87
2022/12/01 04:24:54;;;;;;;42.17;26.60;;;;;;;1.66;68.78;101389.31;4831983;28;101727;-87
2022/12/01 04:27:19;;;;;;;39.43;24.80;;;;;;;1.61;69.27;101378.91;4884441;28;96792;-87
2022/12/01 04:29:45;;;;;;;43.97;27.73;;;;;;;1.49;69.01;101363.13;4853660;28;97444;-88
2022/12/01 04:32:11;;;;;;;43.87;27.67;;;;;;;1.65;69.38;101379.81;4872221;28;98577;-88
2022/12/01 04:34:37;;;;;;;47.20;28.23;;;;;;;1.73;68.91;101370.50;4840341;28;101598;-87
2022/12/01 04:37:03;;;;;;;46.43;26.83;;;;;;;1.68;69.11;101387.66;4856772;28;97976;-87
2022/12/01 04:39:28;;;;;;;41.47;26.43;;;;;;;1.61;69.35;101384.06;4859530;28;97409;-87
2022/12/01 04:41:54;;;;;;;39.63;26.20;;;;;;;1.59;69.26;101386.63;4859618;28;101967;-86
2022/12/01 04:44:19;;;;;;;42.53;27.03;;;;;;;1.67;69.53;101396.25;4859591;28;97285;-88
2022/12/01 04:46:45;;;;;;;46.90;28.33;;;;;;;1.64;69.45;101386.72;4853188;28;96836;-88
2022/12/01 04:49:11;;;;;;;47.87;28.03;;;;;;;1.51;69.46;101374.38;4856166;28;96910;-88
2022/12/01 04:51:36;;;;;;;41.77;27.90;;;;;;;1.64;69.64;101393.63;4855850;28;101111;-87
2022/12/01 04:54:02;;;;;;;50.97;29.50;;;;;;;1.57;69.10;101372.78;4851697;28;98424;-88
2022/12/01 04:56:28;;;;;;;44.97;28.17;;;;;;;1.60;69.49;101379.75;4838125;28;96798;-86
2022/12/01 04:58:53;;;;;;;46.70;29.03;;;;;;;1.65;69.34;101398.81;4859719;28;97009;-87
2022/12/01 05:01:19;;;;;;;43.70;28.10;;;;;;;1.70;69.54;101404.97;4854113;28;98548;-88
2022/12/01 05:03:49;;;;;;;42.63;27.90;;;;;;;1.70;69.21;101398.91;4858093;28;100579;-88
2022/12/01 05:06:20;;;;;;;49.97;28.67;;;;;;;1.59;69.56;101383.16;4869788;28;96782;-88
2022/12/01 05:08:46;;;;;;;50.27;28.17;;;;;;;1.67;69.49;101393.69;4858661;28;96856;-89
2022/12/01 05:11:12;;;;;;;45.73;27.50;;;;;;;1.68;69.52;101391.09;4856521;28;97891;-87
2022/12/01 05:13:39;;;;;;;49.43;28.20;;;;;;;1.74;69.72;101396.41;4855661;28;101117;-87
2022/12/01 05:16:24;;;;;;;50.80;29.23;;;;;;;1.73;69.66;101402.44;4844463;28;97365;-87
2022/12/01 05:21:42;;;;;;;49.77;30.03;;;;;;;1.69;69.61;101392.88;4870276;28;98403;-88
2022/12/01 05:24:09;;;;;;;47.87;31.17;;;;;;;1.42;69.53;101331.06;4841847;28;100941;-87
2022/12/01 05:26:34;;;;;;;52.87;31.97;;;;;;;1.74;69.32;101393.81;4862780;28;96765;-88
2022/12/01 05:29:00;;;;;;;52.77;31.33;;;;;;;1.79;69.58;101392.19;4837406;28;97460;-88
2022/12/01 05:31:25;;;;;;;46.70;29.53;;;;;;;1.76;69.81;101386.09;4859074;28;101767;-86
2022/12/01 05:33:51;;;;;;;58.73;32.20;;;;;;;1.77;69.86;101390.41;4832762;28;101285;-88
2022/12/01 05:36:16;;;;;;;51.77;30.70;;;;;;;1.79;70.30;101394.78;4853655;28;96841;-88
2022/12/01 05:38:42;;;;;;;51.70;30.83;;;;;;;1.71;70.20;101387.69;4831631;28;97176;-88
2022/12/01 05:41:08;;;;;;;52.03;30.67;;;;;;;1.74;69.77;101370.50;4847986;28;101698;-87
2022/12/01 05:43:33;;;;;;;47.77;30.57;;;;;;;1.72;70.54;101385.16;4850894;28;101580;-86
2022/12/01 05:45:59;;;;;;;51.60;30.27;;;;;;;1.76;70.25;101392.13;4858179;28;98400;-88
2022/12/01 05:48:25;;;;;;;49.50;30.00;;;;;;;1.73;69.79;101386.03;4842009;28;96872;-88
2022/12/01 05:50:50;;;;;;;52.40;30.23;;;;;;;1.80;69.79;101386.19;4832354;28;100021;-87
2022/12/01 05:53:16;;;;;;;48.47;30.27;;;;;;;1.93;69.99;101394.16;4841535;28;101558;-88
2022/12/01 05:55:42;;;;;;;49.70;29.97;;;;;;;1.88;69.42;101390.63;4854803;28;97458;-90
2022/12/01 05:58:08;;;;;;;46.20;28.80;;;;;;;1.78;69.87;101369.75;4841357;28;97304;-90
2022/12/01 06:00:34;;;;;;;49.10;29.20;;;;;;;1.90;69.44;101392.38;4860595;28;99511;-88
2022/12/01 06:03:01;;;;;;;50.90;30.33;;;;;;;1.95;69.64;101385.59;4851239;28;102193;-91
2022/12/01 06:05:27;;;;;;;49.57;31.07;;;;;;;1.87;69.71;101405.28;4837791;28;97161;-86
2022/12/01 06:07:52;;;;;;;49.50;30.03;;;;;;;1.74;70.16;101398.13;4852977;28;97063;-88
2022/12/01 06:10:18;;;;;;;43.30;28.33;;;;;;;1.74;70.57;101393.81;4868731;28;101238;-90
2022/12/01 06:12:43;;;;;;;53.83;32.97;;;;;;;1.83;70.09;101394.81;4858701;28;98355;-87
2022/12/01 06:15:10;;;;;;;49.47;28.10;;;;;;;1.78;70.26;101390.44;4851339;28;97241;-88
2022/12/01 06:17:35;;;;;;;47.60;28.27;;;;;;;1.86;70.05;101390.56;4868375;28;97311;-87
2022/12/01 06:20:01;;;;;;;50.47;28.90;;;;;;;1.89;70.15;101397.53;4850525;28;100222;-92
2022/12/01 06:22:27;;;;;;;49.97;30.70;;;;;;;1.89;70.26;101398.44;4854504;28;100687;-91
2022/12/01 06:24:52;;;;;;;45.23;27.57;;;;;;;1.90;70.13;101396.69;4848919;28;97202;-91
2022/12/01 06:27:18;;;;;;;41.20;27.00;;;;;;;1.75;70.12;101374.00;4845487;28;97876;-93
2022/12/01 06:29:43;;;;;;;48.07;27.97;;;;;;;1.77;70.16;101377.47;4862142;28;101628;-94
2022/12/01 06:32:09;;;;;;;42.07;26.43;;;;;;;1.92;69.90;101389.81;4843702;28;98876;-91
2022/12/01 06:34:35;;;;;;;45.80;27.97;;;;;;;2.03;69.18;101396.94;4847455;28;97320;-90
2022/12/01 06:37:00;;;;;;;48.53;29.47;;;;;;;2.01;69.38;101398.63;4846092;28;96922;-83
2022/12/01 06:39:26;;;;;;;44.07;27.37;;;;;;;2.00;69.43;101401.19;4858146;28;97623;-85
2022/12/01 06:41:51;;;;;;;49.23;31.40;;;;;;;2.04;68.81;101358.97;4854807;28;98449;-84
2022/12/01 06:44:17;;;;;;;49.87;28.87;;;;;;;1.74;69.42;101346.34;4842781;28;96867;-85
2022/12/01 06:46:42;;;;;;;48.27;27.73;;;;;;;2.06;69.24;101390.94;4837644;28;97114;-80
2022/12/01 06:49:11;;;;;;;49.40;27.50;;;;;;;2.00;69.77;101401.19;4855375;28;100326;-75
2022/12/01 06:51:37;;;;;;;42.70;26.13;;;;;;;1.76;69.81;101373.13;4856920;28;101963;-78
2022/12/01 06:54:03;;;;;;;48.73;27.23;;;;;;;1.87;69.90;101386.28;4866819;28;96777;-79
2022/12/01 06:56:28;;;;;;;44.87;26.47;;;;;;;1.84;70.05;101375.88;4856898;28;96903;-78
2022/12/01 06:58:54;;;;;;;52.23;28.03;;;;;;;2.02;69.44;101396.91;4850464;28;101886;-78
2022/12/01 07:01:20;;;;;;;45.90;28.17;;;;;;;1.87;69.30;101375.94;4869168;28;100768;-78
2022/12/01 07:03:49;;;;;;;47.27;27.70;;;;;;;2.02;69.63;101397.78;4852063;28;97563;-80
2022/12/01 07:06:15;;;;;;;44.50;26.87;;;;;;;2.00;69.71;101399.47;4842638;28;98263;-79
2022/12/01 07:08:41;;;;;;;44.30;27.13;;;;;;;2.06;69.94;101414.25;4826045;28;98547;-79
2022/12/01 07:11:08;;;;;;;44.43;27.17;;;;;;;2.02;69.55;101397.78;4825290;28;101739;-78
2022/12/01 07:13:34;;;;;;;47.07;28.40;;;;;;;2.07;69.75;101413.44;4824489;28;97382;-79
2022/12/01 07:16:01;;;;;;;48.67;28.43;;;;;;;2.07;69.17;101420.31;4840276;28;97267;-78
2022/12/01 07:18:27;;;;;;;49.27;27.50;;;;;;;2.06;69.22;101414.25;4840318;28;102032;-78
2022/12/01 07:20:53;;;;;;;58.67;27.83;;;;;;;2.15;69.46;101421.31;4827498;28;101657;-78
2022/12/01 07:23:20;;;;;;;46.03;27.67;;;;;;;1.92;69.21;101387.22;4836986;29;97337;-80
2022/12/01 07:25:45;;;;;;;45.63;27.17;;;;;;;2.15;69.49;101426.50;4838733;28;96846;-79
2022/12/01 07:28:11;;;;;;;44.53;27.73;;;;;;;2.18;69.21;101418.78;4849716;28;97937;-79
2022/12/01 07:30:37;;;;;;;52.00;28.30;;;;;;;2.09;69.42;101416.03;4839438;28;97825;-78
2022/12/01 07:33:03;;;;;;;46.50;28.43;;;;;;;2.22;69.17;101426.63;4836865;28;97202;-79
2022/12/01 07:35:29;;;;;;;45.63;26.90;;;;;;;2.17;69.30;101417.91;4834076;28;97444;-79
2022/12/01 07:37:55;;;;;;;47.47;28.40;;;;;;;2.22;69.23;101431.81;4843447;28;101826;-78
2022/12/01 07:40:21;;;;;;;49.27;29.87;;;;;;;2.17;69.21;101420.50;4837527;28;97891;-80
2022/12/01 07:42:46;;;;;;;51.33;29.50;;;;;;;2.13;69.28;101417.84;4834571;28;96876;-83
2022/12/01 07:45:12;;;;;;;46.27;28.80;;;;;;;2.17;69.07;101420.50;4831347;29;97236;-79
2022/12/01 07:47:37;;;;;;;49.17;29.27;;;;;;;2.14;69.45;101409.22;4849371;28;97943;-81
2022/12/01 07:50:06;;;;;;;46.60;29.77;;;;;;;2.23;69.58;101430.09;4837778;29;101217;-81
2022/12/01 07:52:31;;;;;;;49.10;28.93;;;;;;;2.24;69.18;101434.44;4843732;28;97388;-81
2022/12/01 07:54:57;;;;;;;46.27;28.33;;;;;;;2.22;68.96;101430.97;4859140;28;97458;-80
2022/12/01 07:57:23;;;;;;;50.50;30.13;;;;;;;1.98;69.44;101390.81;4855994;28;97736;-78
2022/12/01 07:59:48;;;;;;;50.17;29.10;;;;;;;2.31;69.38;101438.03;4822290;28;101057;-82
2022/12/01 08:02:14;;;;;;;49.37;30.13;;;;;;;2.24;69.15;101429.25;4839493;28;97130;-85
2022/12/01 08:04:40;;;;;;;47.87;29.63;;;;;;;2.32;69.03;101427.66;4828210;28;96904;-84
2022/12/01 08:07:05;;;;;;;46.77;28.20;;;;;;;2.28;69.07;101418.09;4834950;29;101665;-85
2022/12/01 08:09:31;;;;;;;46.43;28.20;;;;;;;2.37;68.77;101425.16;4837634;28;97918;-79
2022/12/01 08:11:56;;;;;;;48.43;27.43;;;;;;;2.35;68.98;101430.31;4852107;28;96917;-80
2022/12/01 08:14:22;;;;;;;44.27;27.37;;;;;;;2.46;68.76;101438.28;4855017;28;97125;-82
2022/12/01 08:16:48;;;;;;;47.27;28.07;;;;;;;2.38;69.09;101425.16;4852876;28;98176;-80
2022/12/01 08:19:13;;;;;;;48.43;28.80;;;;;;;2.39;69.03;101424.34;4852160;28;97462;-87
2022/12/01 08:21:39;;;;;;;51.50;29.67;;;;;;;2.51;68.70;101433.19;4851473;28;97219;-84
2022/12/01 08:24:05;;;;;;;49.97;29.27;;;;;;;2.39;68.52;101421.75;4831599;28;97292;-85
2022/12/01 08:26:30;;;;;;;43.53;27.70;;;;;;;2.49;68.74;101427.97;4829433;28;102246;-85
2022/12/01 08:28:56;;;;;;;49.20;28.97;;;;;;;2.52;68.67;101429.72;4828368;28;101008;-83
2022/12/01 08:31:25;;;;;;;44.60;28.23;;;;;;;2.52;68.39;101428.00;4842265;28;98120;-84
2022/12/01 08:33:51;;;;;;;47.10;28.77;;;;;;;2.51;68.60;101422.81;4820690;28;97504;-84
2022/12/01 08:36:17;;;;;;;51.57;29.27;;;;;;;2.53;68.85;101422.00;4851988;28;101462;-84
2022/12/01 08:38:44;;;;;;;50.70;28.87;;;;;;;2.45;68.79;101408.91;4820213;28;101378;-84
2022/12/01 08:41:10;;;;;;;48.90;27.40;;;;;;;2.59;68.33;101422.09;4844869;28;97960;-83
2022/12/01 08:43:40;;;;;;;47.80;29.23;;;;;;;2.57;68.78;101423.78;4829803;28;97985;-83
2022/12/01 08:46:06;;;;;;;47.57;28.53;;;;;;;2.54;68.34;101412.50;4844602;28;98007;-84
2022/12/01 08:48:33;;;;;;;50.67;29.07;;;;;;;2.61;68.35;101427.28;4843338;28;101004;-84
2022/12/01 08:51:13;;;;;;;54.13;29.10;;;;;;;2.57;68.65;101428.97;4836836;28;98149;-85
2022/12/01 08:53:40;;;;;;;51.20;30.30;;;;;;;2.50;68.82;101416.72;4840965;28;97067;-84
2022/12/01 08:56:10;;;;;;;42.33;27.97;;;;;;;2.57;68.55;101430.69;4844165;28;101580;-84
2022/12/01 08:58:35;;;;;;;45.77;28.10;;;;;;;2.56;68.91;101435.00;4840226;28;98024;-86
2022/12/01 09:01:07;;;;;;;51.57;27.87;;;;;;;2.60;69.24;101434.19;4846491;28;97266;-83
2022/12/01 09:03:33;;;;;;;47.03;27.50;;;;;;;2.61;68.98;101414.31;4832945;28;98801;-84
2022/12/01 09:06:07;;;;;;;48.10;28.63;;;;;;;2.70;69.08;101437.78;4825451;28;101219;-84
2022/12/01 09:08:34;;;;;;;49.90;29.63;;;;;;;2.72;68.80;101429.19;4826803;29;102143;-85
2022/12/01 09:11:04;;;;;;;46.13;28.27;;;;;;;2.74;69.02;101436.16;4827585;29;97016;-84
2022/12/01 09:13:34;;;;;;;46.63;29.13;;;;;;;2.78;68.93;101431.00;4844398;28;97570;-84
2022/12/01 09:16:02;;;;;;;47.47;29.70;;;;;;;2.71;69.00;101440.44;4835134;29;97507;-85
2022/12/01 09:18:28;;;;;;;47.80;29.20;;;;;;;2.71;69.22;101431.78;4816368;28;101257;-83
2022/12/01 09:20:54;;;;;;;46.80;27.87;;;;;;;2.76;69.09;101430.13;4836852;28;96796;-84
2022/12/01 09:23:20;;;;;;;48.43;30.23;;;;;;;2.68;68.97;101398.03;4817718;28;98115;-84
2022/12/01 09:25:47;;;;;;;49.10;29.37;;;;;;;2.74;68.95;101410.22;4824828;29;101800;-85
2022/12/01 09:28:13;;;;;;;53.27;29.27;;;;;;;2.80;69.54;101434.50;4841514;28;101721;-85
2022/12/01 09:30:39;;;;;;;47.00;29.17;;;;;;;2.85;69.22;101430.28;4869307;28;97941;-85
2022/12/01 09:33:05;;;;;;;45.77;28.00;;;;;;;2.82;69.10;101435.41;4833175;28;97193;-85
2022/12/01 09:35:31;;;;;;;49.20;28.07;;;;;;;2.85;69.13;101425.09;4833777;28;101066;-85
2022/12/01 09:37:57;;;;;;;48.60;27.93;;;;;;;2.76;69.09;101411.09;4821769;28;101481;-83
2022/12/01 09:40:27;;;;;;;50.30;29.07;;;;;;;2.83;69.40;101418.13;4827632;29;96913;-83
2022/12/01 09:42:53;;;;;;;42.03;27.60;;;;;;;2.78;69.69;101417.19;4835868;28;96843;-84
2022/12/01 09:45:25;;;;;;;46.20;27.50;;;;;;;3.01;68.62;101409.75;4835770;29;101409;-86
2022/12/01 09:47:54;;;;;;;47.27;27.07;;;;;;;2.93;68.92;101413.09;4833351;28;96871;-84
2022/12/01 09:50:24;;;;;;;43.37;28.50;;;;;;;2.80;68.98;101395.63;4830893;28;97107;-80
2022/12/01 09:52:58;;;;;;;45.30;27.17;;;;;;;2.85;69.01;101406.03;4846196;28;97372;-84
2022/12/01 09:55:24;;;;;;;45.20;27.50;;;;;;;2.94;68.97;101409.66;4842592;28;100938;-79
2022/12/01 09:57:55;;;;;;;42.43;26.53;;;;;;;2.93;69.31;101404.44;4857813;28;97934;-79
2022/12/01 10:00:23;;;;;;;38.73;24.70;;;;;;;2.98;69.11;101405.38;4831657;28;97107;-78
2022/12/01 10:03:05;;;;;;;48.83;27.13;;;;;;;2.95;68.92;101402.75;4848234;28;96838;-78
2022/12/01 10:05:56;;;;;;;41.38;25.80;;;;;;;2.98;69.03;101407.09;4836112;28;101532;-78
2022/12/01 10:08:26;;;;;;;47.00;26.40;;;;;;;3.00;69.06;101397.63;4830559;29;101508;-78
2022/12/01 10:10:54;;;;;;;42.87;26.47;;;;;;;2.93;68.99;101381.09;4835300;28;97301;-80
2022/12/01 10:13:25;;;;;;;41.93;26.03;;;;;;;2.97;68.86;101392.38;4844655;28;96879;-79
2022/12/01 10:16:14;;;;;;;47.57;25.60;;;;;;;2.98;68.93;101399.31;4853797;28;100831;-78
2022/12/01 10:19:02;;;;;;;40.83;27.30;;;;;;;3.10;68.52;101395.16;4852781;28;101261;-80
2022/12/01 10:21:34;;;;;;;42.17;25.87;;;;;;;3.07;68.71;101392.53;4844807;28;97457;-79
2022/12/01 10:24:05;;;;;;;38.20;25.42;;;;;;;2.88;68.87;101372.38;4850598;28;97302;-76
2022/12/01 10:26:59;;;;;;;45.15;26.70;;;;;;;2.93;69.32;101388.88;4850642;28;98443;-77
2022/12/01 10:29:43;;;;;;;39.13;26.20;;;;;;;2.96;69.53;101391.50;4837414;28;101413;-78
2022/12/01 10:32:18;;;;;;;37.80;24.70;;;;;;;2.91;69.15;101382.81;4821326;29;97202;-80
2022/12/01 10:34:58;;;;;;;39.40;25.83;;;;;;;3.01;69.00;101373.44;4862875;28;97930;-81
2022/12/01 10:37:26;;;;;;;37.73;24.50;;;;;;;3.01;69.35;101382.06;4852960;28;101353;-82
2022/12/01 10:39:54;;;;;;;44.40;25.77;;;;;;;2.90;69.66;101368.94;4838975;28;97358;-81
2022/12/01 10:42:31;;;;;;;40.97;25.63;;;;;;;3.06;69.10;101383.03;4826857;28;97201;-82
2022/12/01 10:45:00;;;;;;;41.50;25.70;;;;;;;2.87;69.30;101361.13;4842143;28;96848;-82
2022/12/01 10:47:30;;;;;;;46.10;26.40;;;;;;;2.77;69.28;101343.72;4837152;28;97870;-82
2022/12/01 10:49:56;;;;;;;39.60;25.70;;;;;;;2.97;69.74;101376.81;4858164;28;97725;-82
2022/12/01 10:52:40;;;;;;;36.53;25.23;;;;;;;3.03;69.52;101379.50;4833709;28;97764;-83
2022/12/01 10:55:21;;;;;;;38.63;25.37;;;;;;;3.02;69.55;101373.44;4860907;28;97343;-83
2022/12/01 10:57:46;;;;;;;37.60;24.13;;;;;;;3.02;69.15;101373.44;4846860;28;101716;-83
2022/12/01 11:00:26;;;;;;;43.03;24.83;;;;;;;3.02;69.01;101370.84;4834562;29;101335;-83
2022/12/01 11:02:52;;;;;;;42.27;27.13;;;;;;;2.94;69.34;101354.31;4816801;28;97391;-83
2022/12/01 11:05:24;;;;;;;42.07;25.57;;;;;;;3.02;69.53;101359.59;4861938;28;96856;-83
2022/12/01 11:07:50;;;;;;;42.08;24.60;;;;;;;2.99;69.77;101362.16;4846419;28;97711;-83
2022/12/01 11:10:25;;;;;;;46.00;26.93;;;;;;;3.00;69.89;101362.19;4868177;28;97790;-83
2022/12/01 11:13:16;;;;;;;46.33;26.40;;;;;;;3.15;69.44;101359.78;4863868;28;96773;-83
2022/12/01 11:15:52;;;;;;;43.67;24.80;;;;;;;3.10;69.10;101361.44;4847975;28;96903;-83
2022/12/01 11:18:28;;;;;;;39.73;24.00;;;;;;;3.09;69.38;101359.72;4849811;28;97921;-83
2022/12/01 11:21:06;;;;;;;37.30;24.70;;;;;;;3.14;69.49;101351.97;4874543;28;101049;-83
2022/12/01 11:23:43;;;;;;;37.93;23.67;;;;;;;3.17;69.36;101347.72;4862764;28;96869;-83
2022/12/01 11:26:13;;;;;;;36.70;24.93;;;;;;;3.09;69.35;101338.94;4866130;28;96787;-82
2022/12/01 11:28:52;;;;;;;37.63;23.03;;;;;;;3.27;68.75;101351.28;4860613;28;97472;-84
2022/12/01 11:31:19;;;;;;;38.73;23.47;;;;;;;3.20;68.78;101343.38;4843568;28;101477;-83